KUNU/UNU METAR and TAF weather

Enter ICAO airport designator
Station Type Date Time Source
KUNU METAR 2018/12/15 05:35 UTC NOAA

KUNU 150535Z AUTO 00000KT 5SM BR CLR M04/M05 A3020 RMK AO2 T10401047 TSNO


Station Type Date Time Source
KUNU Decoded METAR 2018/12/15 05:35 UTC NOAA

Juneau, Dodge County Airport, WI, United States (KUNU) 43-25-36N 088-42-12W
Dec 15, 2018 - 12:35 AM EST / 2018.12.15 0535 UTC
Wind: Calm:0
Visibility: 5 mile(s):0
Sky conditions: clear
Weather: mist
Temperature: 24.8 F (-4.0 C)
Dew Point: 23.5 F (-4.7 C)
Relative Humidity: 94%
Pressure (altimeter): 30.2 in. Hg (1022 hPa)
ob: KUNU 150535Z AUTO 00000KT 5SM BR CLR M04/M05 A3020 RMK AO2 T10401047 TSNO
cycle: 5

Station Type Date Time Source
KUNU TAF UTC NOAA

Error!


Example: see airport list